createdAt,value
2023-06-29T00:00:10.459Z,74.74
2023-06-29T00:01:10.912Z,74.59
2023-06-29T00:02:10.740Z,74.64
2023-06-29T00:03:10.938Z,74.63
2023-06-29T00:04:11.058Z,74.98
2023-06-29T00:05:11.136Z,74.49
2023-06-29T00:06:11.304Z,74.17
2023-06-29T00:07:11.420Z,74.33
2023-06-29T00:08:11.550Z,74.34
2023-06-29T00:09:11.694Z,74.11
2023-06-29T00:10:11.801Z,74.13
2023-06-29T00:11:11.917Z,73.92
2023-06-29T00:12:12.078Z,73.87
2023-06-29T00:13:12.236Z,73.72
2023-06-29T00:14:12.322Z,73.65
2023-06-29T00:15:12.464Z,73.76
2023-06-29T00:16:12.670Z,73.95
2023-06-29T00:17:12.714Z,73.86
2023-06-29T00:18:12.889Z,73.99
2023-06-29T00:19:13.047Z,74.11
2023-06-29T00:20:13.122Z,74.07
2023-06-29T00:21:13.244Z,73.97
2023-06-29T00:22:13.380Z,74.05
2023-06-29T00:23:13.545Z,74.09
2023-06-29T00:24:13.679Z,74.14
2023-06-29T00:25:13.798Z,74.37
2023-06-29T00:26:13.944Z,74.68
2023-06-29T00:27:14.089Z,74.98
2023-06-29T00:28:14.281Z,75.21
2023-06-29T00:29:14.380Z,75.22
2023-06-29T00:30:14.515Z,75.36
2023-06-29T00:31:14.644Z,75.37
2023-06-29T00:32:14.882Z,75.49
2023-06-29T00:33:14.925Z,75.57
2023-06-29T00:34:15.020Z,75.64
2023-06-29T00:35:15.152Z,75.57
2023-06-29T00:36:15.292Z,75.52
2023-06-29T00:37:15.470Z,75.41
2023-06-29T00:38:15.555Z,75.43
2023-06-29T00:39:15.697Z,75.52
2023-06-29T00:40:15.870Z,75.52
2023-06-29T00:41:15.991Z,75.33
2023-06-29T00:42:16.090Z,75.36
2023-06-29T00:43:16.363Z,75.13
2023-06-29T00:44:16.428Z,75.37
2023-06-29T00:45:16.544Z,75.22
2023-06-29T00:46:16.670Z,74.95
2023-06-29T00:47:16.784Z,74.92
2023-06-29T00:48:16.898Z,74.62
2023-06-29T00:49:17.043Z,74.60
2023-06-29T00:50:17.210Z,74.71
2023-06-29T00:51:17.342Z,74.98
2023-06-29T00:52:17.439Z,74.79
2023-06-29T00:53:17.552Z,74.70
2023-06-29T00:54:17.674Z,74.88
2023-06-29T00:55:17.764Z,74.86
2023-06-29T00:56:17.948Z,74.87
2023-06-29T00:57:18.048Z,75.01
2023-06-29T00:58:18.181Z,75.08
2023-06-29T00:59:18.317Z,75.20
2023-06-29T01:00:18.506Z,75.08
2023-06-29T01:01:18.701Z,74.87
2023-06-29T01:02:18.723Z,74.75
2023-06-29T01:03:19.045Z,74.81
2023-06-29T01:04:18.979Z,74.74
2023-06-29T01:05:19.142Z,74.91
2023-06-29T01:06:19.286Z,75.09
2023-06-29T01:07:19.424Z,75.12
2023-06-29T01:08:19.527Z,75.21
2023-06-29T01:09:19.660Z,75.30
2023-06-29T01:10:19.832Z,75.35
2023-06-29T01:11:19.949Z,75.44
2023-06-29T01:12:21.030Z,75.47
2023-06-29T01:13:20.179Z,75.60
2023-06-29T01:14:20.310Z,75.65
2023-06-29T01:15:20.454Z,75.79
2023-06-29T01:16:20.641Z,75.87
2023-06-29T01:17:20.722Z,76.12
2023-06-29T01:18:20.877Z,76.23
2023-06-29T01:19:21.003Z,76.37
2023-06-29T01:20:21.163Z,76.50
2023-06-29T01:21:21.320Z,76.58
2023-06-29T01:22:21.449Z,76.71
2023-06-29T01:23:21.595Z,76.75
2023-06-29T01:24:21.670Z,76.80
2023-06-29T01:25:21.808Z,76.92
2023-06-29T01:26:22.016Z,76.88
2023-06-29T01:27:22.061Z,76.85
2023-06-29T01:28:22.198Z,76.88
2023-06-29T01:29:22.316Z,76.86
2023-06-29T01:30:22.457Z,76.91
2023-06-29T01:31:22.720Z,76.84
2023-06-29T01:32:22.774Z,76.68
2023-06-29T01:33:22.869Z,76.60
2023-06-29T01:34:23.016Z,76.38
2023-06-29T01:35:23.197Z,76.34
2023-06-29T01:36:23.329Z,76.19
2023-06-29T01:37:23.407Z,76.12
2023-06-29T01:38:23.530Z,76.15
2023-06-29T01:39:23.676Z,76.22
2023-06-29T01:40:23.810Z,76.11
2023-06-29T01:41:23.953Z,76.19
2023-06-29T01:42:24.086Z,76.15
2023-06-29T01:43:24.225Z,75.87
2023-06-29T01:44:24.351Z,75.76
2023-06-29T01:45:24.496Z,75.87
2023-06-29T01:46:24.735Z,75.97
2023-06-29T01:47:24.772Z,76.27
2023-06-29T01:48:24.881Z,76.42
2023-06-29T01:49:25.018Z,76.41
2023-06-29T01:50:25.110Z,76.39
2023-06-29T01:51:25.604Z,76.37
2023-06-29T01:52:25.381Z,76.14
2023-06-29T01:53:25.527Z,76.14
2023-06-29T01:54:25.620Z,76.00
2023-06-29T01:55:25.760Z,76.04
2023-06-29T01:56:25.931Z,76.06
2023-06-29T01:57:26.031Z,75.98
2023-06-29T01:58:26.127Z,76.01
2023-06-29T01:59:26.270Z,76.03
2023-06-29T02:00:26.398Z,76.02
2023-06-29T02:01:26.567Z,76.08
2023-06-29T02:02:26.758Z,76.07
2023-06-29T02:03:26.914Z,75.92
2023-06-29T02:04:26.929Z,76.04
2023-06-29T02:05:27.070Z,76.02
2023-06-29T02:06:27.208Z,75.92
2023-06-29T02:07:27.600Z,75.96
2023-06-29T02:08:27.487Z,76.04
2023-06-29T02:09:27.640Z,76.08
2023-06-29T02:10:27.780Z,76.15
2023-06-29T02:11:27.915Z,76.09
2023-06-29T02:12:28.088Z,75.98
2023-06-29T02:13:28.187Z,75.99
2023-06-29T02:14:28.261Z,75.93
2023-06-29T02:15:28.596Z,76.08
2023-06-29T02:16:28.555Z,75.93
2023-06-29T02:17:28.700Z,76.11
2023-06-29T02:18:28.787Z,75.73
2023-06-29T02:19:28.932Z,75.62
2023-06-29T02:20:29.091Z,75.72
2023-06-29T02:21:29.183Z,75.85
2023-06-29T02:22:29.399Z,76.02
2023-06-29T02:23:29.449Z,75.95
2023-06-29T02:24:29.597Z,76.02
2023-06-29T02:25:29.733Z,76.14
2023-06-29T02:26:29.860Z,76.16
2023-06-29T02:27:30.006Z,76.29
2023-06-29T02:28:30.129Z,76.24
2023-06-29T02:29:30.264Z,76.32
2023-06-29T02:30:30.392Z,76.32
2023-06-29T02:31:30.664Z,76.30
2023-06-29T02:32:30.845Z,76.13
2023-06-29T02:33:30.796Z,76.15
2023-06-29T02:34:30.932Z,76.25
2023-06-29T02:35:31.110Z,76.41
2023-06-29T02:36:31.196Z,76.55
2023-06-29T02:37:31.341Z,76.54
2023-06-29T02:38:31.487Z,76.45
2023-06-29T02:39:31.567Z,76.42
2023-06-29T02:40:31.711Z,76.59
2023-06-29T02:41:31.842Z,76.42
2023-06-29T02:42:31.983Z,76.51
2023-06-29T02:43:32.144Z,76.56
2023-06-29T02:44:32.417Z,76.61
2023-06-29T02:45:32.389Z,76.55
2023-06-29T02:46:32.587Z,76.45
2023-06-29T02:47:32.667Z,76.23
2023-06-29T02:48:32.817Z,76.22
2023-06-29T02:49:32.910Z,76.15
2023-06-29T02:50:33.037Z,76.05
2023-06-29T02:51:33.243Z,75.93
2023-06-29T02:52:33.646Z,75.88
2023-06-29T02:53:33.442Z,75.90
2023-06-29T02:54:33.551Z,75.90
2023-06-29T02:55:33.692Z,75.89
2023-06-29T02:56:33.874Z,75.85
2023-06-29T02:57:33.953Z,75.91
2023-06-29T02:58:34.112Z,76.10
2023-06-29T02:59:34.193Z,76.17
2023-06-29T03:00:34.325Z,76.27
2023-06-29T03:01:34.554Z,76.34
2023-06-29T03:02:34.674Z,76.23
2023-06-29T03:03:34.840Z,76.09
2023-06-29T03:04:34.856Z,75.71
2023-06-29T03:05:35.013Z,75.74
2023-06-29T03:06:35.113Z,75.49
2023-06-29T03:07:35.314Z,75.63
2023-06-29T03:08:35.397Z,75.69
2023-06-29T03:09:35.517Z,75.66
2023-06-29T03:10:35.684Z,75.51
2023-06-29T03:11:35.779Z,75.39
2023-06-29T03:12:35.909Z,75.29
2023-06-29T03:13:36.067Z,75.16
2023-06-29T03:14:36.171Z,75.10
2023-06-29T03:15:36.369Z,75.01
2023-06-29T03:16:36.474Z,75.07
2023-06-29T03:17:36.590Z,75.11
2023-06-29T03:18:36.684Z,75.36
2023-06-29T03:19:36.781Z,75.34
2023-06-29T03:20:36.944Z,75.37
2023-06-29T03:21:37.074Z,75.62
2023-06-29T03:22:37.173Z,75.49
2023-06-29T03:23:37.313Z,75.39
2023-06-29T03:24:37.525Z,75.62
2023-06-29T03:25:37.557Z,75.28
2023-06-29T03:26:37.701Z,75.63
2023-06-29T03:27:37.801Z,75.74
2023-06-29T03:28:37.893Z,75.71
2023-06-29T03:29:38.056Z,75.68
2023-06-29T03:30:38.222Z,75.63
2023-06-29T03:31:38.333Z,75.64
2023-06-29T03:32:38.455Z,75.85
2023-06-29T03:33:38.557Z,75.82
2023-06-29T03:34:38.688Z,75.82
2023-06-29T03:35:38.861Z,75.90
2023-06-29T03:36:38.979Z,75.89
2023-06-29T03:37:39.074Z,75.93
2023-06-29T03:38:39.214Z,76.01
2023-06-29T03:39:39.337Z,76.01
2023-06-29T03:40:39.470Z,75.99
2023-06-29T03:41:39.653Z,76.07
2023-06-29T03:42:39.732Z,76.10
2023-06-29T03:43:39.902Z,76.15
2023-06-29T03:44:39.988Z,76.15
2023-06-29T03:45:40.126Z,76.38
2023-06-29T03:46:40.271Z,76.40
2023-06-29T03:47:40.517Z,76.38
2023-06-29T03:48:40.732Z,76.46
2023-06-29T03:49:40.640Z,76.50
2023-06-29T03:50:40.766Z,76.38
2023-06-29T03:51:40.910Z,76.48
2023-06-29T03:52:41.040Z,76.73
2023-06-29T03:53:41.201Z,76.72
2023-06-29T03:54:41.308Z,76.62
2023-06-29T03:55:41.645Z,76.69
2023-06-29T03:56:41.588Z,76.66
2023-06-29T03:57:41.730Z,76.39
2023-06-29T03:58:41.877Z,76.41
2023-06-29T03:59:41.956Z,76.50
2023-06-29T04:00:42.107Z,76.81
2023-06-29T04:01:42.281Z,76.43
2023-06-29T04:02:42.381Z,76.51
2023-06-29T04:03:42.492Z,76.47
2023-06-29T04:04:42.633Z,76.56
2023-06-29T04:05:43.064Z,76.77
2023-06-29T04:06:42.809Z,76.62
2023-06-29T04:07:43.028Z,76.61
2023-06-29T04:08:43.071Z,76.43
2023-06-29T04:09:43.291Z,76.76
2023-06-29T04:10:43.403Z,76.58
2023-06-29T04:11:43.601Z,76.76
2023-06-29T04:12:43.612Z,76.76
2023-06-29T04:13:43.736Z,76.60
2023-06-29T04:14:43.866Z,76.69
2023-06-29T04:15:44.481Z,77.04
2023-06-29T04:16:44.240Z,76.97
2023-06-29T04:17:44.299Z,76.87
2023-06-29T04:18:44.396Z,76.78
2023-06-29T04:19:44.533Z,76.88
2023-06-29T04:20:44.680Z,76.77
2023-06-29T04:21:44.879Z,76.63
2023-06-29T04:22:44.963Z,76.61
2023-06-29T04:23:45.094Z,76.32
2023-06-29T04:24:45.235Z,76.30
2023-06-29T04:25:45.654Z,76.62
2023-06-29T04:26:45.531Z,76.22
2023-06-29T04:27:45.627Z,76.42
2023-06-29T04:28:45.773Z,76.44
2023-06-29T04:29:45.919Z,76.49
2023-06-29T04:30:46.116Z,76.51
2023-06-29T04:31:46.186Z,76.31
2023-06-29T04:32:46.441Z,76.21
2023-06-29T04:33:46.447Z,76.54
2023-06-29T04:34:46.551Z,76.49
2023-06-29T04:35:46.981Z,76.56
2023-06-29T04:36:46.824Z,76.01
2023-06-29T04:37:46.983Z,76.04
2023-06-29T04:38:47.082Z,76.05
2023-06-29T04:39:47.240Z,75.90
2023-06-29T04:40:47.322Z,75.90
2023-06-29T04:41:47.467Z,75.92
2023-06-29T04:42:47.633Z,75.84
2023-06-29T04:43:47.715Z,76.16
2023-06-29T04:44:47.857Z,75.92
2023-06-29T04:45:47.978Z,75.87
2023-06-29T04:46:48.149Z,75.59
2023-06-29T04:47:48.319Z,76.01
2023-06-29T04:48:48.388Z,75.87
2023-06-29T04:49:48.613Z,75.84
2023-06-29T04:50:48.659Z,75.92
2023-06-29T04:51:48.734Z,75.99
2023-06-29T04:52:48.918Z,75.86
2023-06-29T04:53:48.997Z,75.91
2023-06-29T04:54:49.156Z,75.88
2023-06-29T04:55:49.255Z,75.78
2023-06-29T04:56:49.381Z,75.95
2023-06-29T04:57:49.540Z,75.95
2023-06-29T04:58:49.668Z,76.00
2023-06-29T04:59:49.752Z,76.24
2023-06-29T05:00:49.890Z,76.20
2023-06-29T05:01:50.072Z,76.04
2023-06-29T05:02:50.252Z,76.13
2023-06-29T05:03:50.313Z,76.33
2023-06-29T05:04:50.366Z,76.21
2023-06-29T05:05:50.511Z,76.19
2023-06-29T05:06:50.670Z,76.25
2023-06-29T05:07:50.743Z,76.47
2023-06-29T05:08:50.883Z,76.58
2023-06-29T05:09:51.073Z,76.44
2023-06-29T05:10:51.116Z,76.63
2023-06-29T05:11:51.257Z,76.82
2023-06-29T05:12:51.437Z,76.66
2023-06-29T05:13:51.558Z,76.77
2023-06-29T05:14:51.653Z,76.62
2023-06-29T05:15:51.776Z,76.60
2023-06-29T05:16:51.971Z,76.58
2023-06-29T05:17:52.045Z,76.68
2023-06-29T05:18:52.157Z,76.77
2023-06-29T05:19:52.310Z,76.56
2023-06-29T05:20:52.423Z,76.70
2023-06-29T05:21:52.553Z,76.78
2023-06-29T05:22:52.713Z,76.29
2023-06-29T05:23:52.802Z,76.30
2023-06-29T05:24:52.944Z,76.05
2023-06-29T05:25:53.091Z,76.32
2023-06-29T05:26:53.183Z,76.16
2023-06-29T05:27:53.317Z,76.14
2023-06-29T05:29:04.367Z,76.04
2023-06-29T05:29:54.696Z,76.31
2023-06-29T05:30:53.752Z,76.18
2023-06-29T05:31:54.029Z,76.33
2023-06-29T05:32:53.988Z,75.99
2023-06-29T05:33:54.089Z,75.98
2023-06-29T05:34:54.175Z,76.20
2023-06-29T05:35:54.360Z,76.46
2023-06-29T05:36:54.442Z,76.57
2023-06-29T05:37:54.583Z,76.24
2023-06-29T05:38:54.698Z,76.39
2023-06-29T05:39:54.826Z,75.74
2023-06-29T05:40:54.963Z,75.98
2023-06-29T05:41:55.065Z,76.40
2023-06-29T05:42:55.191Z,76.17
2023-06-29T05:43:55.329Z,76.13
2023-06-29T05:44:55.468Z,75.61
2023-06-29T05:45:55.668Z,75.61
2023-06-29T05:46:55.789Z,75.83
2023-06-29T05:47:55.901Z,76.01
2023-06-29T05:48:56.003Z,76.47
2023-06-29T05:49:56.151Z,76.45
2023-06-29T05:50:56.300Z,76.45
2023-06-29T05:51:56.383Z,75.82
2023-06-29T05:52:56.503Z,76.03
2023-06-29T05:53:56.631Z,76.05
2023-06-29T05:54:56.788Z,76.36
2023-06-29T05:55:56.919Z,76.38
2023-06-29T05:56:57.048Z,76.42
2023-06-29T05:57:57.140Z,75.87
2023-06-29T05:58:57.279Z,75.51
2023-06-29T05:59:57.431Z,75.35
2023-06-29T06:00:57.580Z,75.82
2023-06-29T06:01:57.744Z,75.38
2023-06-29T06:02:57.891Z,75.29
2023-06-29T06:03:57.983Z,75.66
2023-06-29T06:04:58.034Z,75.71
2023-06-29T06:05:58.196Z,75.81
2023-06-29T06:06:58.396Z,75.07
2023-06-29T06:07:58.419Z,75.09
2023-06-29T06:08:58.519Z,75.85
2023-06-29T06:09:58.765Z,75.41
2023-06-29T06:10:58.796Z,74.86
2023-06-29T06:11:58.950Z,75.11
2023-06-29T06:12:59.090Z,75.33
2023-06-29T06:13:59.264Z,75.14
2023-06-29T06:14:59.377Z,75.12
2023-06-29T06:15:59.482Z,75.07
2023-06-29T06:16:59.596Z,74.51
2023-06-29T06:17:59.738Z,74.73
2023-06-29T06:18:59.807Z,74.76
2023-06-29T06:19:59.935Z,75.05
2023-06-29T06:21:00.063Z,74.89
2023-06-29T06:22:00.215Z,74.35
2023-06-29T06:23:00.331Z,74.07
2023-06-29T06:24:00.461Z,74.31
2023-06-29T06:25:00.572Z,74.02
2023-06-29T06:26:00.709Z,74.10
2023-06-29T06:27:00.828Z,73.33
2023-06-29T06:28:00.979Z,73.38
2023-06-29T06:29:01.077Z,72.43
2023-06-29T06:30:01.243Z,72.82
2023-06-29T06:31:01.424Z,72.88
2023-06-29T06:32:01.536Z,73.20
2023-06-29T06:33:01.557Z,73.98
2023-06-29T06:34:01.729Z,74.06
2023-06-29T06:35:01.806Z,73.26
2023-06-29T06:36:01.932Z,73.11
2023-06-29T06:37:02.056Z,73.29
2023-06-29T06:38:02.238Z,73.21
2023-06-29T06:39:02.350Z,73.76
2023-06-29T06:40:02.505Z,73.36
2023-06-29T06:41:02.586Z,72.89
2023-06-29T06:42:02.707Z,72.96
2023-06-29T06:43:02.822Z,73.53
2023-06-29T06:44:02.925Z,73.90
2023-06-29T06:45:03.145Z,74.23
2023-06-29T06:46:03.196Z,74.01
2023-06-29T06:47:03.399Z,73.58
2023-06-29T06:48:03.522Z,73.49
2023-06-29T06:49:03.603Z,73.90
2023-06-29T06:50:03.846Z,73.04
2023-06-29T06:51:03.889Z,73.67
2023-06-29T06:52:04.003Z,73.20
2023-06-29T06:53:04.167Z,72.98
2023-06-29T06:54:04.296Z,72.86
2023-06-29T06:55:04.395Z,72.73
2023-06-29T06:56:04.487Z,72.72
2023-06-29T06:57:04.626Z,73.23
2023-06-29T06:58:04.729Z,73.13
2023-06-29T06:59:04.894Z,72.98
2023-06-29T07:00:04.974Z,72.83
2023-06-29T07:01:05.133Z,72.69
2023-06-29T07:02:05.257Z,73.11
2023-06-29T07:03:05.504Z,72.48
2023-06-29T07:04:05.557Z,72.34
2023-06-29T07:05:05.639Z,72.53
2023-06-29T07:06:05.769Z,72.39
2023-06-29T07:07:05.990Z,72.82
2023-06-29T07:08:06.049Z,73.11
2023-06-29T07:09:06.251Z,72.73
2023-06-29T07:10:06.332Z,72.41
2023-06-29T07:11:06.469Z,72.99
2023-06-29T07:12:06.603Z,73.21
2023-06-29T07:13:06.745Z,73.24
2023-06-29T07:14:06.936Z,73.26
2023-06-29T07:15:07.036Z,73.19
2023-06-29T07:16:07.165Z,73.57
2023-06-29T07:17:07.346Z,73.50
2023-06-29T07:18:07.419Z,72.63
2023-06-29T07:24:08.668Z,73.04
2023-06-29T07:25:08.320Z,72.62
2023-06-29T07:26:08.419Z,72.63
2023-06-29T07:27:08.566Z,72.59
2023-06-29T07:28:08.727Z,71.97
2023-06-29T07:29:08.900Z,72.43
2023-06-29T07:30:09.026Z,71.67
2023-06-29T07:31:09.113Z,71.93
2023-06-29T07:32:09.219Z,72.81
2023-06-29T07:33:09.373Z,71.76
2023-06-29T07:34:09.488Z,72.29
2023-06-29T07:35:09.568Z,72.28
2023-06-29T07:36:09.723Z,71.68
2023-06-29T07:37:09.893Z,72.01
2023-06-29T07:38:09.976Z,71.97
2023-06-29T07:39:10.125Z,72.08
2023-06-29T07:40:10.205Z,71.35
2023-06-29T07:41:10.394Z,70.97
2023-06-29T07:42:10.468Z,71.76
2023-06-29T07:43:10.610Z,71.53
2023-06-29T07:44:10.745Z,72.16
2023-06-29T07:45:10.873Z,71.84
2023-06-29T07:46:11.249Z,71.79
2023-06-29T07:47:11.231Z,71.46
2023-06-29T07:48:11.412Z,71.32
2023-06-29T07:49:11.443Z,70.48
2023-06-29T07:50:11.615Z,70.11
2023-06-29T07:51:11.763Z,70.38
2023-06-29T07:52:11.840Z,70.42
2023-06-29T07:53:11.996Z,69.66
2023-06-29T07:54:12.126Z,70.47
2023-06-29T07:55:12.262Z,70.88
2023-06-29T07:56:12.406Z,70.88
2023-06-29T07:59:12.805Z,70.66
2023-06-29T08:00:12.916Z,70.67
2023-06-29T08:01:13.226Z,69.76
2023-06-29T08:02:13.234Z,68.54
2023-06-29T08:03:13.350Z,68.15
2023-06-29T08:04:13.516Z,68.57
2023-06-29T08:07:14.039Z,67.94
2023-06-29T08:08:14.102Z,67.42
2023-06-29T08:09:14.053Z,67.12
2023-06-29T08:10:14.248Z,67.28
2023-06-29T08:11:14.311Z,68.56
2023-06-29T08:12:14.463Z,68.55
2023-06-29T08:13:14.626Z,67.15
2023-06-29T08:14:14.724Z,66.65
2023-06-29T08:15:14.861Z,66.16
2023-06-29T08:16:15.015Z,66.46
2023-06-29T08:17:15.167Z,65.31
2023-06-29T08:18:15.262Z,64.74
2023-06-29T08:19:15.517Z,65.70
2023-06-29T08:20:15.559Z,65.60
2023-06-29T08:21:15.676Z,65.48
2023-06-29T08:22:15.835Z,65.95
2023-06-29T08:23:15.931Z,66.69
2023-06-29T08:24:17.734Z,66.60
2023-06-29T08:25:16.178Z,66.18
2023-06-29T08:26:16.319Z,65.98
2023-06-29T08:27:16.476Z,65.93
2023-06-29T08:28:16.569Z,66.04
2023-06-29T08:29:16.769Z,66.36
2023-06-29T08:30:16.922Z,65.05
2023-06-29T08:31:17.019Z,65.44
2023-06-29T08:32:17.199Z,65.30
2023-06-29T08:33:17.351Z,66.75
2023-06-29T08:34:17.380Z,66.11
2023-06-29T08:35:17.458Z,66.46
2023-06-29T08:36:17.594Z,64.17
2023-06-29T08:37:17.744Z,63.77
2023-06-29T08:38:17.949Z,63.60
2023-06-29T08:39:18.025Z,64.06
2023-06-29T08:40:18.152Z,61.72
2023-06-29T08:41:18.299Z,61.52
2023-06-29T08:42:18.424Z,63.75
2023-06-29T08:43:18.609Z,63.61
2023-06-29T08:44:18.753Z,63.16
2023-06-29T08:45:18.836Z,61.15
2023-06-29T08:46:18.989Z,60.77
2023-06-29T08:47:19.093Z,61.98
2023-06-29T08:48:19.238Z,61.99
2023-06-29T08:49:19.483Z,62.28
2023-06-29T08:50:19.508Z,62.66
2023-06-29T08:51:19.614Z,62.15
2023-06-29T08:52:19.718Z,61.46
2023-06-29T08:53:19.937Z,61.79
2023-06-29T08:54:20.056Z,61.52
2023-06-29T08:55:20.098Z,61.21
2023-06-29T08:56:20.196Z,61.22
2023-06-29T08:57:20.348Z,61.13
2023-06-29T08:58:20.470Z,59.74
2023-06-29T08:59:20.636Z,59.90
2023-06-29T09:00:20.742Z,61.35
2023-06-29T09:01:20.932Z,61.01
2023-06-29T09:02:21.046Z,59.86
2023-06-29T09:03:21.247Z,60.67
2023-06-29T09:04:21.368Z,59.96
2023-06-29T09:05:21.482Z,61.25
2023-06-29T09:06:21.592Z,60.89
2023-06-29T09:07:21.764Z,61.29
2023-06-29T09:08:21.905Z,61.10
2023-06-29T09:09:21.990Z,60.56
2023-06-29T09:10:22.741Z,62.02
2023-06-29T09:11:22.262Z,60.43
2023-06-29T09:12:22.398Z,61.38
2023-06-29T09:13:22.517Z,61.71
2023-06-29T09:14:22.645Z,61.48
2023-06-29T09:15:22.828Z,61.16
2023-06-29T09:16:22.946Z,62.30
2023-06-29T09:17:23.409Z,62.58
2023-06-29T09:18:23.188Z,60.56
2023-06-29T09:19:23.312Z,61.17
2023-06-29T09:20:23.501Z,60.87
2023-06-29T09:21:23.589Z,59.92
2023-06-29T09:22:23.757Z,60.37
2023-06-29T09:23:23.881Z,60.85
2023-06-29T09:24:23.982Z,61.96
2023-06-29T09:25:34.081Z,62.74
2023-06-29T09:26:25.299Z,59.27
2023-06-29T09:27:24.364Z,61.65
2023-06-29T09:28:24.520Z,60.46
2023-06-29T09:29:24.625Z,59.91
2023-06-29T09:30:24.900Z,58.91
2023-06-29T09:31:24.905Z,60.46
2023-06-29T09:32:25.090Z,60.94
2023-06-29T09:33:25.162Z,60.59
2023-06-29T09:34:25.303Z,61.73
2023-06-29T09:35:25.437Z,60.88
2023-06-29T09:36:25.599Z,60.78
2023-06-29T09:37:25.708Z,60.37
2023-06-29T09:38:25.838Z,60.14
2023-06-29T09:39:26.021Z,60.99
2023-06-29T09:40:26.123Z,60.75
2023-06-29T09:41:26.261Z,61.83
2023-06-29T09:42:26.480Z,63.55
2023-06-29T09:43:26.547Z,63.32
2023-06-29T09:44:26.680Z,63.09
2023-06-29T09:45:26.804Z,61.88
2023-06-29T09:46:29.560Z,61.50
2023-06-29T09:49:27.372Z,61.54
2023-06-29T09:50:27.653Z,61.68
2023-06-29T09:51:27.611Z,63.05
2023-06-29T09:52:27.816Z,61.40
2023-06-29T09:53:27.843Z,60.90
2023-06-29T09:54:27.978Z,62.80
2023-06-29T09:55:28.123Z,61.70
2023-06-29T09:56:28.260Z,61.04
2023-06-29T09:57:28.437Z,61.78
2023-06-29T09:58:28.524Z,61.01
2023-06-29T09:59:28.749Z,62.73
2023-06-29T10:00:28.864Z,61.23
2023-06-29T10:01:28.996Z,60.80
2023-06-29T10:02:29.183Z,62.26
2023-06-29T10:03:29.486Z,60.83
2023-06-29T10:04:29.343Z,62.45
2023-06-29T10:05:29.444Z,62.27
2023-06-29T10:06:29.568Z,60.40
2023-06-29T10:07:29.734Z,58.95
2023-06-29T10:08:29.985Z,58.30
2023-06-29T10:09:29.962Z,60.56
2023-06-29T10:10:30.094Z,60.66
2023-06-29T10:11:30.179Z,60.54
2023-06-29T10:12:30.318Z,58.57
2023-06-29T10:13:30.548Z,57.42
2023-06-29T10:14:30.598Z,58.42
2023-06-29T10:15:30.779Z,58.45
2023-06-29T10:16:30.897Z,58.04
2023-06-29T10:17:31.084Z,60.55
2023-06-29T10:18:31.142Z,57.92
2023-06-29T10:19:31.348Z,56.69
2023-06-29T10:20:31.400Z,58.13
2023-06-29T10:21:31.526Z,56.85
2023-06-29T10:22:31.667Z,55.96
2023-06-29T10:23:31.932Z,55.86
2023-06-29T10:24:31.935Z,56.59
2023-06-29T10:25:32.085Z,55.48
2023-06-29T10:26:32.224Z,56.56
2023-06-29T10:27:32.361Z,57.29
2023-06-29T10:28:32.534Z,57.14
2023-06-29T10:29:32.617Z,56.99
2023-06-29T10:30:32.799Z,56.70
2023-06-29T10:31:33.008Z,56.67
2023-06-29T10:32:33.102Z,57.05
2023-06-29T10:33:33.315Z,57.63
2023-06-29T10:34:33.288Z,59.67
2023-06-29T10:35:33.443Z,58.77
2023-06-29T10:36:33.609Z,57.95
2023-06-29T10:37:33.732Z,57.07
2023-06-29T10:38:34.057Z,56.41
2023-06-29T10:39:33.988Z,56.98
2023-06-29T10:40:34.123Z,57.79
2023-06-29T10:41:34.258Z,58.18
2023-06-29T10:42:34.403Z,58.68
2023-06-29T10:43:34.641Z,59.20
2023-06-29T10:44:34.690Z,59.50
2023-06-29T10:45:34.816Z,59.81
2023-06-29T10:46:34.978Z,60.12
2023-06-29T10:47:35.152Z,60.11
2023-06-29T10:48:47.875Z,60.34
2023-06-29T10:49:36.360Z,60.46
2023-06-29T10:50:35.616Z,59.97
2023-06-29T10:51:35.609Z,60.26
2023-06-29T10:52:35.756Z,60.10
2023-06-29T10:53:35.892Z,59.63
2023-06-29T10:54:36.067Z,59.66
2023-06-29T10:55:36.157Z,59.78
2023-06-29T10:56:36.293Z,60.29
2023-06-29T10:57:36.447Z,61.54
2023-06-29T10:58:36.604Z,59.81
2023-06-29T10:59:36.725Z,60.02
2023-06-29T11:00:36.846Z,60.10
2023-06-29T11:01:37.021Z,60.05
2023-06-29T11:02:37.139Z,60.44
2023-06-29T11:03:37.365Z,60.77
2023-06-29T11:04:37.462Z,60.90
2023-06-29T11:05:37.500Z,61.43
2023-06-29T11:06:37.653Z,60.85
2023-06-29T11:07:37.795Z,61.02
2023-06-29T11:08:37.906Z,61.12
2023-06-29T11:09:38.046Z,60.82
2023-06-29T11:10:38.303Z,61.33
2023-06-29T11:11:38.277Z,62.02
2023-06-29T11:12:38.414Z,61.54
2023-06-29T11:13:38.512Z,61.29
2023-06-29T11:14:38.668Z,61.35
2023-06-29T11:15:38.819Z,61.47
2023-06-29T11:16:38.923Z,61.44
2023-06-29T11:17:39.075Z,61.27
2023-06-29T11:18:39.158Z,61.42
2023-06-29T11:19:39.352Z,62.18
2023-06-29T11:20:39.633Z,61.63
2023-06-29T11:21:39.591Z,62.27
2023-06-29T11:22:39.702Z,62.33
2023-06-29T11:23:39.838Z,62.80
2023-06-29T11:24:39.975Z,62.55
2023-06-29T11:25:40.150Z,62.21
2023-06-29T11:26:40.231Z,62.51
2023-06-29T11:27:40.377Z,62.92
2023-06-29T11:28:40.504Z,62.92
2023-06-29T11:29:40.655Z,62.83
2023-06-29T11:30:40.883Z,62.75
2023-06-29T11:31:41.079Z,62.48
2023-06-29T11:32:41.126Z,62.40
2023-06-29T11:33:41.174Z,62.38
2023-06-29T11:34:41.296Z,62.67
2023-06-29T11:35:41.499Z,63.07
2023-06-29T11:36:41.546Z,63.50
2023-06-29T11:37:41.682Z,63.30
2023-06-29T11:38:41.845Z,62.83
2023-06-29T11:39:41.935Z,63.38
2023-06-29T11:40:42.065Z,63.50
2023-06-29T11:41:42.350Z,63.23
2023-06-29T11:42:42.407Z,63.66
2023-06-29T11:43:42.460Z,63.80
2023-06-29T11:44:42.592Z,63.20
2023-06-29T11:45:42.900Z,63.49
2023-06-29T11:46:42.880Z,63.19
2023-06-29T11:47:43.137Z,62.96
2023-06-29T11:48:43.131Z,63.16
2023-06-29T11:49:43.241Z,63.35
2023-06-29T11:50:43.521Z,63.34
2023-06-29T11:51:43.592Z,63.59
2023-06-29T11:52:43.673Z,63.09
2023-06-29T11:53:43.757Z,63.07
2023-06-29T11:54:43.901Z,62.65
2023-06-29T11:55:44.311Z,62.54
2023-06-29T11:56:44.180Z,62.80
2023-06-29T11:57:44.272Z,62.94
2023-06-29T11:58:44.412Z,62.82
2023-06-29T11:59:44.545Z,62.86
2023-06-29T12:00:44.716Z,63.45
2023-06-29T12:01:44.891Z,63.20
2023-06-29T12:02:45.017Z,63.48
2023-06-29T12:03:45.276Z,63.33
2023-06-29T12:04:45.300Z,63.40
2023-06-29T12:05:45.634Z,63.70
2023-06-29T12:06:45.592Z,63.66
2023-06-29T12:07:45.782Z,63.52
2023-06-29T12:08:45.833Z,63.88
2023-06-29T12:09:45.887Z,64.06
2023-06-29T12:10:46.067Z,63.91
2023-06-29T12:11:46.168Z,63.28
2023-06-29T12:12:46.298Z,63.62
2023-06-29T12:13:46.431Z,63.77
2023-06-29T12:14:46.588Z,63.88
2023-06-29T12:18:47.222Z,63.73
2023-06-29T12:20:03.966Z,63.63
2023-06-29T12:20:48.766Z,63.87
2023-06-29T12:21:47.666Z,64.20
2023-06-29T12:22:47.648Z,64.22
2023-06-29T12:23:47.769Z,63.65
2023-06-29T12:24:47.876Z,63.94
2023-06-29T12:25:48.194Z,63.54
2023-06-29T12:26:48.192Z,63.87
2023-06-29T12:27:48.301Z,64.06
2023-06-29T12:28:48.398Z,63.92
2023-06-29T12:29:48.525Z,63.30
2023-06-29T12:30:49.002Z,63.66
2023-06-29T12:31:48.838Z,63.45
2023-06-29T12:32:48.987Z,64.03
2023-06-29T12:33:49.028Z,64.02
2023-06-29T12:34:50.341Z,63.82
2023-06-29T12:35:49.591Z,64.07
2023-06-29T12:36:49.418Z,64.08
2023-06-29T12:37:49.590Z,64.39
2023-06-29T12:38:49.685Z,64.31
2023-06-29T12:39:49.801Z,63.68
2023-06-29T12:40:49.958Z,63.37
2023-06-29T12:41:50.014Z,62.88
2023-06-29T12:42:50.144Z,63.38
2023-06-29T12:43:50.285Z,63.11
2023-06-29T12:44:50.469Z,61.73
2023-06-29T12:45:50.549Z,62.19
2023-06-29T12:46:50.733Z,62.08
2023-06-29T12:47:50.832Z,62.99
2023-06-29T12:48:50.973Z,62.09
2023-06-29T12:49:51.066Z,61.58
2023-06-29T12:50:51.203Z,62.38
2023-06-29T12:51:51.341Z,61.73
2023-06-29T12:52:51.478Z,60.81
2023-06-29T12:53:51.692Z,60.62
2023-06-29T12:54:51.759Z,60.74
2023-06-29T12:55:51.852Z,60.35
2023-06-29T12:56:52.003Z,60.34
2023-06-29T12:57:52.131Z,60.49
2023-06-29T12:58:52.307Z,60.51
2023-06-29T12:59:52.516Z,60.28
2023-06-29T13:00:52.789Z,60.32
2023-06-29T13:01:52.662Z,59.67
2023-06-29T13:02:52.944Z,59.26
2023-06-29T13:03:53.263Z,58.73
2023-06-29T13:04:53.038Z,58.71
2023-06-29T13:05:53.199Z,58.06
2023-06-29T13:06:53.399Z,58.87
2023-06-29T13:07:53.437Z,57.47